createdAt,value
2022-09-06T00:01:17.109Z,84.77
2022-09-06T00:03:45.253Z,84.70
2022-09-06T00:06:14.541Z,84.85
2022-09-06T00:08:44.873Z,84.66
2022-09-06T00:11:13.385Z,84.91
2022-09-06T00:13:41.701Z,84.93
2022-09-06T00:16:14.750Z,84.76
2022-09-06T00:18:43.190Z,84.72
2022-09-06T00:21:17.336Z,84.69
2022-09-06T00:23:44.961Z,84.89
2022-09-06T00:26:13.532Z,84.95
2022-09-06T00:28:41.738Z,85.08
2022-09-06T00:31:12.526Z,84.74
2022-09-06T00:33:40.996Z,84.69
2022-09-06T00:36:09.508Z,84.84
2022-09-06T00:38:37.675Z,84.62
2022-09-06T00:41:06.533Z,84.60
2022-09-06T00:43:34.515Z,84.71
2022-09-06T00:46:03.434Z,84.46
2022-09-06T00:48:33.432Z,84.43
2022-09-06T00:51:04.310Z,84.20
2022-09-06T00:53:32.998Z,84.37
2022-09-06T00:56:00.801Z,84.15
2022-09-06T00:58:29.456Z,84.06
2022-09-06T01:00:57.451Z,83.31
2022-09-06T01:03:26.991Z,83.48
2022-09-06T01:06:05.201Z,83.70
2022-09-06T01:08:50.535Z,82.95
2022-09-06T01:11:33.781Z,82.71
2022-09-06T01:14:11.588Z,82.85
2022-09-06T01:16:44.669Z,83.12
2022-09-06T01:19:40.972Z,83.53
2022-09-06T01:22:27.686Z,83.58
2022-09-06T01:25:05.864Z,83.81
2022-09-06T01:28:03.734Z,83.45
2022-09-06T01:30:35.161Z,83.00
2022-09-06T01:33:11.590Z,83.11
2022-09-06T01:35:46.310Z,83.04
2022-09-06T01:38:15.756Z,82.71
2022-09-06T01:40:43.445Z,82.99
2022-09-06T01:43:19.283Z,82.88
2022-09-06T01:46:01.393Z,82.74
2022-09-06T01:48:41.239Z,83.24
2022-09-06T01:51:18.649Z,83.66
2022-09-06T01:53:59.158Z,84.04
2022-09-06T01:56:38.855Z,84.30
2022-09-06T01:59:39.314Z,83.34
2022-09-06T02:02:13.067Z,83.68
2022-09-06T02:04:45.962Z,84.14
2022-09-06T02:07:21.953Z,84.78
2022-09-06T02:09:54.680Z,85.15
2022-09-06T02:12:25.752Z,85.19
2022-09-06T02:14:59.334Z,85.14
2022-09-06T02:17:31.907Z,85.50
2022-09-06T02:20:03.715Z,85.60
2022-09-06T02:22:36.663Z,85.53
2022-09-06T02:25:08.409Z,86.98
2022-09-06T02:27:38.168Z,87.54
2022-09-06T02:30:08.219Z,86.30
2022-09-06T02:32:40.850Z,86.48
2022-09-06T02:35:13.614Z,86.26
2022-09-06T02:37:42.637Z,86.29
2022-09-06T02:40:12.146Z,86.56
2022-09-06T02:42:42.127Z,86.51
2022-09-06T02:45:11.546Z,86.48
2022-09-06T02:47:39.580Z,86.66
2022-09-06T02:50:08.679Z,86.07
2022-09-06T02:52:37.230Z,85.68
2022-09-06T02:55:05.582Z,86.06
2022-09-06T02:57:33.601Z,86.00
2022-09-06T03:00:01.200Z,86.49
2022-09-06T03:02:30.400Z,86.53
2022-09-06T03:04:58.074Z,86.72
2022-09-06T03:07:25.806Z,86.62
2022-09-06T03:09:53.419Z,86.92
2022-09-06T03:12:21.482Z,86.28
2022-09-06T03:14:53.038Z,85.85
2022-09-06T03:17:22.703Z,85.36
2022-09-06T03:19:51.636Z,85.25
2022-09-06T03:22:19.870Z,85.32
2022-09-06T03:24:48.024Z,85.40
2022-09-06T03:27:15.966Z,85.94
2022-09-06T03:29:44.097Z,86.50
2022-09-06T03:32:11.747Z,86.83
2022-09-06T03:34:39.832Z,86.58
2022-09-06T03:37:08.785Z,86.56
2022-09-06T03:39:37.002Z,86.26
2022-09-06T03:42:04.903Z,86.18
2022-09-06T03:44:33.269Z,85.68
2022-09-06T03:47:00.962Z,85.98
2022-09-06T03:49:28.611Z,86.63
2022-09-06T03:51:56.495Z,86.36
2022-09-06T03:54:25.867Z,86.40
2022-09-06T03:56:53.487Z,86.22
2022-09-06T03:59:21.133Z,86.44
2022-09-06T04:01:48.741Z,86.29
2022-09-06T04:04:17.063Z,86.72
2022-09-06T04:06:44.687Z,86.99
2022-09-06T04:09:12.713Z,87.49
2022-09-06T04:11:44.942Z,87.75
2022-09-06T04:14:13.119Z,87.64
2022-09-06T04:16:40.869Z,87.56
2022-09-06T04:19:08.989Z,87.43
2022-09-06T04:21:36.629Z,87.36
2022-09-06T04:24:04.828Z,87.39
2022-09-06T04:26:32.499Z,86.84
2022-09-06T04:29:01.503Z,86.56
2022-09-06T04:31:29.189Z,85.90
2022-09-06T04:33:57.287Z,86.17
2022-09-06T04:36:24.920Z,86.41
2022-09-06T04:38:52.684Z,86.47
2022-09-06T04:41:21.074Z,86.63
2022-09-06T04:43:49.081Z,86.82
2022-09-06T04:46:21.510Z,86.55
2022-09-06T04:48:50.506Z,86.74
2022-09-06T04:51:18.830Z,86.79
2022-09-06T04:53:47.307Z,86.92
2022-09-06T04:56:17.789Z,86.95
2022-09-06T04:58:47.206Z,86.63
2022-09-06T05:01:15.203Z,86.46
2022-09-06T05:03:44.538Z,85.74
2022-09-06T05:06:16.309Z,84.92
2022-09-06T05:08:44.302Z,85.21
2022-09-06T05:11:12.388Z,85.13
2022-09-06T05:13:41.257Z,85.34
2022-09-06T05:16:10.353Z,85.34
2022-09-06T05:18:38.076Z,84.72
2022-09-06T05:21:07.650Z,84.49
2022-09-06T05:23:35.409Z,84.58
2022-09-06T05:26:03.382Z,84.98
2022-09-06T05:28:31.332Z,84.84
2022-09-06T05:31:07.261Z,84.79
2022-09-06T05:33:35.878Z,83.90
2022-09-06T05:36:03.993Z,86.58
2022-09-06T05:38:33.275Z,85.38
2022-09-06T05:41:01.144Z,84.78
2022-09-06T05:43:29.267Z,85.03
2022-09-06T05:45:56.942Z,84.90
2022-09-06T05:48:24.625Z,84.83
2022-09-06T05:51:00.831Z,84.54
2022-09-06T05:53:28.446Z,84.31
2022-09-06T05:55:57.406Z,84.58
2022-09-06T05:58:25.038Z,84.59
2022-09-06T06:00:52.685Z,84.46
2022-09-06T06:03:20.651Z,84.58
2022-09-06T06:05:48.609Z,84.81
2022-09-06T06:08:16.405Z,84.80
2022-09-06T06:10:44.006Z,85.18
2022-09-06T06:13:13.442Z,85.06
2022-09-06T06:15:41.112Z,85.31
2022-09-06T06:18:09.046Z,85.45
2022-09-06T06:20:36.641Z,85.81
2022-09-06T06:23:04.944Z,86.76
2022-09-06T06:25:32.552Z,86.04
2022-09-06T06:28:01.716Z,86.47
2022-09-06T06:30:30.675Z,86.28
2022-09-06T06:32:58.797Z,86.36
2022-09-06T06:35:26.527Z,86.48
2022-09-06T06:37:54.133Z,86.25
2022-09-06T06:40:22.081Z,85.68
2022-09-06T06:42:50.005Z,83.99
2022-09-06T06:45:18.658Z,83.00
2022-09-06T06:47:50.697Z,81.96
2022-09-06T06:50:18.403Z,81.35
2022-09-06T06:52:46.331Z,81.02
2022-09-06T06:55:13.946Z,81.15
2022-09-06T06:57:41.927Z,81.35
2022-09-06T07:00:11.158Z,81.36
2022-09-06T07:02:39.150Z,81.37
2022-09-06T07:07:57.069Z,81.08
2022-09-06T07:12:59.872Z,80.75
2022-09-06T07:15:27.872Z,80.61
2022-09-06T07:17:56.161Z,80.26
2022-09-06T07:20:26.310Z,80.49
2022-09-06T07:25:49.278Z,79.47
2022-09-06T07:28:16.926Z,79.88
2022-09-06T07:30:44.587Z,79.46
2022-09-06T07:33:12.533Z,78.30
2022-09-06T07:35:42.022Z,78.85
2022-09-06T07:38:10.054Z,78.11
2022-09-06T07:40:37.658Z,78.71
2022-09-06T07:43:05.786Z,77.86
2022-09-06T07:45:35.610Z,77.77
2022-09-06T07:48:03.685Z,77.69
2022-09-06T07:50:48.833Z,77.97
2022-09-06T07:53:26.285Z,77.50
2022-09-06T07:55:58.029Z,77.02
2022-09-06T07:58:26.117Z,77.22
2022-09-06T08:00:54.458Z,77.36
2022-09-06T08:03:22.335Z,76.52
2022-09-06T08:11:25.562Z,75.54
2022-09-06T08:13:55.609Z,73.97
2022-09-06T08:16:24.646Z,72.42
2022-09-06T08:18:53.320Z,72.35
2022-09-06T08:21:23.501Z,71.31
2022-09-06T08:23:55.042Z,70.21
2022-09-06T08:26:24.138Z,70.60
2022-09-06T08:28:55.780Z,70.51
2022-09-06T08:31:23.455Z,70.61
2022-09-06T08:33:52.894Z,71.65
2022-09-06T08:36:20.779Z,69.59
2022-09-06T08:38:49.195Z,69.38
2022-09-06T08:41:27.850Z,68.10
2022-09-06T08:46:55.299Z,67.28
2022-09-06T08:49:23.589Z,66.23
2022-09-06T08:52:05.617Z,65.95
2022-09-06T08:54:38.105Z,64.39
2022-09-06T08:57:16.303Z,64.95
2022-09-06T08:59:44.125Z,64.11
2022-09-06T09:02:14.783Z,64.60
2022-09-06T09:04:45.480Z,64.47
2022-09-06T09:07:28.361Z,63.02
2022-09-06T09:09:59.306Z,62.46
2022-09-06T09:12:32.793Z,61.58
2022-09-06T09:15:08.964Z,60.91
2022-09-06T09:17:37.583Z,59.77
2022-09-06T09:20:06.255Z,61.31
2022-09-06T09:22:34.143Z,62.37
2022-09-06T09:25:03.330Z,59.45
2022-09-06T09:27:34.110Z,59.13
2022-09-06T09:32:51.346Z,57.83
2022-09-06T09:35:25.226Z,56.73
2022-09-06T09:38:11.492Z,59.27
2022-09-06T09:40:41.873Z,59.36
2022-09-06T09:43:17.330Z,59.10
2022-09-06T09:45:45.823Z,59.26
2022-09-06T09:48:27.921Z,57.03
2022-09-06T09:50:56.649Z,58.67
2022-09-06T09:53:26.454Z,55.75
2022-09-06T09:55:58.433Z,53.86
2022-09-06T09:58:34.410Z,54.62
2022-09-06T10:01:16.840Z,54.64
2022-09-06T10:09:23.083Z,55.46
2022-09-06T10:11:56.040Z,54.19
2022-09-06T10:14:30.292Z,55.13
2022-09-06T10:16:58.778Z,54.13
2022-09-06T10:19:39.427Z,53.68
2022-09-06T10:22:21.734Z,53.88
2022-09-06T10:25:11.716Z,55.11
2022-09-06T10:28:01.637Z,54.88
2022-09-06T10:30:41.578Z,53.45
2022-09-06T10:33:25.265Z,54.63
2022-09-06T10:35:53.737Z,53.76
2022-09-06T10:38:33.180Z,54.74
2022-09-06T10:41:18.365Z,53.63
2022-09-06T10:43:52.173Z,54.60
2022-09-06T10:46:26.408Z,54.32
2022-09-06T10:48:54.430Z,55.88
2022-09-06T10:51:33.590Z,55.37
2022-09-06T10:54:07.750Z,56.09
2022-09-06T10:56:41.037Z,56.20
2022-09-06T11:02:13.185Z,56.91
2022-09-06T11:07:31.399Z,57.08
2022-09-06T11:10:01.771Z,56.95
2022-09-06T11:12:36.083Z,58.17
2022-09-06T11:15:06.065Z,60.54
2022-09-06T11:17:42.543Z,59.95
2022-09-06T11:20:16.349Z,60.24
2022-09-06T11:23:03.873Z,58.71
2022-09-06T11:25:57.299Z,60.30
2022-09-06T11:28:33.293Z,59.77
2022-09-06T11:31:01.440Z,59.56
2022-09-06T11:33:35.791Z,59.83
2022-09-06T11:36:20.372Z,60.90
2022-09-06T11:38:57.066Z,60.94
2022-09-06T11:41:29.833Z,61.57
2022-09-06T11:43:57.523Z,60.58
2022-09-06T11:46:58.866Z,62.08
2022-09-06T11:49:46.349Z,60.87
2022-09-06T11:53:00.254Z,61.35
2022-09-06T11:55:36.366Z,64.00
2022-09-06T11:58:10.353Z,60.97
2022-09-06T12:00:38.006Z,60.20
2022-09-06T12:06:19.279Z,59.41
2022-09-06T12:08:48.698Z,59.88
2022-09-06T12:11:44.481Z,61.41
2022-09-06T12:14:31.170Z,61.06
2022-09-06T12:17:46.652Z,60.70
2022-09-06T12:20:52.885Z,61.90
2022-09-06T12:23:43.644Z,60.60
2022-09-06T12:26:12.325Z,61.37
2022-09-06T12:28:47.407Z,59.96
2022-09-06T12:31:25.525Z,60.48
2022-09-06T12:33:54.805Z,60.50
2022-09-06T12:36:29.733Z,58.80
2022-09-06T12:39:01.421Z,58.68
2022-09-06T12:41:32.839Z,57.66
2022-09-06T12:44:03.115Z,59.10
2022-09-06T12:46:32.284Z,59.97
2022-09-06T12:49:01.945Z,58.40
2022-09-06T12:51:31.185Z,57.58
2022-09-06T12:54:02.301Z,58.28
2022-09-06T12:56:32.785Z,59.00
2022-09-06T13:02:09.201Z,58.96
2022-09-06T13:04:43.034Z,58.42
2022-09-06T13:07:14.127Z,58.28
2022-09-06T13:09:46.908Z,58.75
2022-09-06T13:12:22.765Z,59.59
2022-09-06T13:14:53.789Z,59.81
2022-09-06T13:17:26.650Z,59.33
2022-09-06T13:19:55.020Z,59.12
2022-09-06T13:22:41.077Z,58.99
2022-09-06T13:25:20.498Z,60.20
2022-09-06T13:27:51.178Z,61.72
2022-09-06T13:30:32.329Z,61.20
2022-09-06T13:33:00.397Z,61.74
2022-09-06T13:35:31.042Z,60.75
2022-09-06T13:38:30.932Z,62.09
2022-09-06T13:41:16.747Z,62.90
2022-09-06T13:43:47.864Z,62.57
2022-09-06T13:46:16.081Z,61.97
2022-09-06T13:48:44.968Z,61.19
2022-09-06T13:51:13.014Z,60.91
2022-09-06T13:53:41.387Z,61.45
2022-09-06T13:56:11.933Z,61.18
2022-09-06T13:58:39.786Z,62.32
2022-09-06T14:01:08.633Z,61.48
2022-09-06T14:03:37.814Z,61.46
2022-09-06T14:06:05.645Z,61.16
2022-09-06T14:08:49.735Z,60.97
2022-09-06T14:11:23.677Z,61.05
2022-09-06T14:13:51.638Z,61.95
2022-09-06T14:16:19.378Z,62.59
2022-09-06T14:18:47.677Z,61.88
2022-09-06T14:21:15.294Z,60.13
2022-09-06T14:23:43.090Z,60.41
2022-09-06T14:26:11.973Z,60.18
2022-09-06T14:28:41.630Z,59.11
2022-09-06T14:31:14.001Z,60.09
2022-09-06T14:33:42.348Z,60.51
2022-09-06T14:36:11.933Z,60.79
2022-09-06T14:38:41.800Z,59.86
2022-09-06T14:41:10.341Z,60.51
2022-09-06T14:43:38.913Z,61.14
2022-09-06T14:46:09.552Z,62.22
2022-09-06T14:48:42.003Z,60.95
2022-09-06T14:51:11.423Z,60.83
2022-09-06T14:53:41.295Z,62.40
2022-09-06T14:56:09.672Z,61.98
2022-09-06T14:58:39.150Z,62.75
2022-09-06T15:01:11.654Z,63.17
2022-09-06T15:03:40.615Z,62.57
2022-09-06T15:06:09.424Z,62.62
2022-09-06T15:08:37.931Z,61.42
2022-09-06T15:11:08.123Z,62.36
2022-09-06T15:13:37.842Z,62.95
2022-09-06T15:16:05.923Z,62.26
2022-09-06T15:18:35.920Z,62.51
2022-09-06T15:21:10.220Z,62.83
2022-09-06T15:23:39.212Z,63.09
2022-09-06T15:26:08.334Z,64.41
2022-09-06T15:28:37.109Z,63.33
2022-09-06T15:31:05.552Z,63.74
2022-09-06T15:33:36.014Z,63.53
2022-09-06T15:36:06.331Z,63.41
2022-09-06T15:38:34.333Z,63.15
2022-09-06T15:41:08.211Z,63.18
2022-09-06T15:43:37.750Z,63.88
2022-09-06T15:46:05.645Z,63.91
2022-09-06T15:48:43.412Z,63.92
2022-09-06T15:51:12.832Z,64.87
2022-09-06T15:53:41.082Z,64.69
2022-09-06T15:56:09.109Z,64.75
2022-09-06T15:58:37.615Z,65.41
2022-09-06T16:01:08.053Z,64.95
2022-09-06T16:03:41.910Z,65.03
2022-09-06T16:06:28.012Z,64.57
2022-09-06T16:08:59.340Z,64.60
2022-09-06T16:11:28.184Z,66.18
2022-09-06T16:13:56.195Z,66.20
2022-09-06T16:16:23.939Z,65.92
2022-09-06T16:18:53.198Z,66.32
2022-09-06T16:21:23.968Z,66.43
2022-09-06T16:23:53.753Z,67.24
2022-09-06T16:26:25.275Z,66.71
2022-09-06T16:28:53.942Z,66.85
2022-09-06T16:31:23.010Z,65.69
2022-09-06T16:33:53.623Z,66.14
2022-09-06T16:36:23.523Z,64.55
2022-09-06T16:38:51.426Z,65.42
2022-09-06T16:41:21.813Z,64.24
2022-09-06T16:43:50.004Z,64.39
2022-09-06T16:46:18.162Z,65.48
2022-09-06T16:48:51.864Z,66.56
2022-09-06T16:51:23.285Z,67.16
2022-09-06T16:53:51.963Z,66.63
2022-09-06T16:56:22.472Z,66.18
2022-09-06T16:58:52.243Z,67.42
2022-09-06T17:01:20.177Z,67.82
2022-09-06T17:03:48.462Z,67.90
2022-09-06T17:06:17.525Z,68.18
2022-09-06T17:08:47.247Z,69.33
2022-09-06T17:11:16.967Z,70.52
2022-09-06T17:13:46.334Z,70.52
2022-09-06T17:16:31.969Z,71.78
2022-09-06T17:19:01.227Z,73.27
2022-09-06T17:21:30.273Z,72.87
2022-09-06T17:24:05.613Z,72.78
2022-09-06T17:26:35.777Z,72.71
2022-09-06T17:29:04.012Z,72.68
2022-09-06T17:31:31.730Z,73.15
2022-09-06T17:33:59.563Z,73.03
2022-09-06T17:36:30.301Z,73.35
2022-09-06T17:39:03.174Z,73.36
2022-09-06T17:41:36.506Z,72.95
2022-09-06T17:44:06.093Z,72.69
2022-09-06T17:46:34.120Z,73.14
2022-09-06T17:49:02.026Z,73.15
2022-09-06T17:51:30.405Z,73.20
2022-09-06T17:53:58.521Z,73.25
2022-09-06T17:56:27.897Z,73.79
2022-09-06T17:58:57.775Z,73.56
2022-09-06T18:01:29.592Z,74.06
2022-09-06T18:03:58.103Z,73.86
2022-09-06T18:06:27.689Z,74.04
2022-09-06T18:08:57.420Z,73.46
2022-09-06T18:11:28.987Z,73.36
2022-09-06T18:13:58.601Z,73.19
2022-09-06T18:16:28.302Z,73.17
2022-09-06T18:18:58.249Z,72.99
2022-09-06T18:21:27.000Z,73.58
2022-09-06T18:23:55.497Z,74.01
2022-09-06T18:26:23.630Z,74.26
2022-09-06T18:28:53.853Z,74.23
2022-09-06T18:31:23.984Z,73.94
2022-09-06T18:33:52.312Z,74.22
2022-09-06T18:36:21.245Z,74.67
2022-09-06T18:38:48.890Z,75.13
2022-09-06T18:41:31.400Z,75.45
2022-09-06T18:44:03.101Z,75.77
2022-09-06T18:46:31.834Z,75.94
2022-09-06T18:49:00.090Z,76.58
2022-09-06T18:51:28.679Z,77.11
2022-09-06T18:53:57.368Z,78.86
2022-09-06T18:56:26.934Z,78.28
2022-09-06T18:58:56.482Z,77.59
2022-09-06T19:01:26.924Z,77.43
2022-09-06T19:03:54.878Z,77.64
2022-09-06T19:06:23.281Z,77.30
2022-09-06T19:08:52.491Z,76.69
2022-09-06T19:11:22.846Z,76.62
2022-09-06T19:13:52.252Z,76.85
2022-09-06T19:16:21.201Z,77.22
2022-09-06T19:18:50.911Z,76.42
2022-09-06T19:21:22.105Z,76.99
2022-09-06T19:23:57.793Z,76.89
2022-09-06T19:26:27.402Z,77.15
2022-09-06T19:28:57.833Z,77.25
2022-09-06T19:31:28.014Z,77.60
2022-09-06T19:33:57.342Z,77.02
2022-09-06T19:36:27.157Z,77.75
2022-09-06T19:39:03.689Z,78.23
2022-09-06T19:41:33.135Z,78.35
2022-09-06T19:44:01.658Z,79.32
2022-09-06T19:46:29.584Z,79.34
2022-09-06T19:48:58.861Z,80.43
2022-09-06T19:51:26.654Z,80.17
2022-09-06T19:53:57.542Z,79.99
2022-09-06T19:56:26.854Z,80.41
2022-09-06T19:58:56.274Z,80.40
2022-09-06T20:01:25.174Z,80.18
2022-09-06T20:03:53.409Z,80.03
2022-09-06T20:06:23.040Z,79.81
2022-09-06T20:08:52.183Z,79.72
2022-09-06T20:11:21.945Z,80.41
2022-09-06T20:13:49.666Z,80.84
2022-09-06T20:16:20.635Z,81.39
2022-09-06T20:18:48.958Z,83.04
2022-09-06T20:21:18.675Z,83.23
2022-09-06T20:23:51.487Z,82.98
2022-09-06T20:26:20.493Z,83.16
2022-09-06T20:28:48.834Z,83.06
2022-09-06T20:31:19.871Z,83.10
2022-09-06T20:33:49.889Z,83.37
2022-09-06T20:36:18.678Z,83.24
2022-09-06T20:38:47.758Z,83.21
2022-09-06T20:41:19.458Z,83.32
2022-09-06T20:43:52.345Z,83.23
2022-09-06T20:46:22.754Z,82.96
2022-09-06T20:48:51.736Z,82.95
2022-09-06T20:51:21.454Z,83.55
2022-09-06T20:53:52.758Z,83.76
2022-09-06T20:56:24.006Z,84.05
2022-09-06T20:58:53.866Z,84.14
2022-09-06T21:01:23.500Z,83.97
2022-09-06T21:03:52.595Z,83.75
2022-09-06T21:06:21.363Z,83.30
2022-09-06T21:08:49.646Z,82.91
2022-09-06T21:11:18.487Z,82.73
2022-09-06T21:13:51.317Z,82.92
2022-09-06T21:16:24.370Z,83.05
2022-09-06T21:18:53.210Z,83.33
2022-09-06T21:21:21.472Z,83.90
2022-09-06T21:23:49.713Z,84.32
2022-09-06T21:26:18.697Z,84.36
2022-09-06T21:28:47.442Z,84.75
2022-09-06T21:31:19.186Z,84.62
2022-09-06T21:33:48.790Z,84.43
2022-09-06T21:36:18.545Z,84.24
2022-09-06T21:38:47.335Z,84.59
2022-09-06T21:41:18.206Z,85.00
2022-09-06T21:43:46.837Z,85.45
2022-09-06T21:46:19.550Z,86.88
2022-09-06T21:48:48.863Z,87.16
2022-09-06T21:51:19.619Z,86.82
2022-09-06T21:53:49.008Z,87.37
2022-09-06T21:56:19.832Z,87.30
2022-09-06T21:58:50.773Z,87.06
2022-09-06T22:01:20.504Z,87.11
2022-09-06T22:03:48.521Z,87.01
2022-09-06T22:06:18.983Z,86.81
2022-09-06T22:08:47.277Z,86.85
2022-09-06T22:11:17.138Z,87.08
2022-09-06T22:13:46.082Z,87.31
2022-09-06T22:16:16.264Z,86.92
2022-09-06T22:18:46.195Z,87.40
2022-09-06T22:21:18.757Z,87.21
2022-09-06T22:23:50.965Z,87.01
2022-09-06T22:26:20.138Z,87.62
2022-09-06T22:28:48.078Z,87.54
2022-09-06T22:31:16.100Z,87.69
2022-09-06T22:33:45.105Z,87.20
2022-09-06T22:36:12.878Z,87.08
2022-09-06T22:38:40.969Z,87.44
2022-09-06T22:41:09.683Z,87.88
2022-09-06T22:43:37.566Z,87.15
2022-09-06T22:46:07.228Z,87.40
2022-09-06T22:48:35.928Z,87.36
2022-09-06T22:51:06.477Z,86.69
2022-09-06T22:53:35.007Z,86.42
2022-09-06T22:56:04.023Z,86.73
2022-09-06T22:58:32.025Z,86.63
2022-09-06T23:01:07.344Z,87.05
2022-09-06T23:03:35.261Z,87.17
2022-09-06T23:06:03.630Z,87.59
2022-09-06T23:08:34.058Z,87.61
2022-09-06T23:11:06.849Z,87.41
2022-09-06T23:13:35.849Z,89.66
2022-09-06T23:16:05.057Z,88.45
2022-09-06T23:18:33.278Z,87.98
2022-09-06T23:21:05.669Z,87.79
2022-09-06T23:23:35.254Z,87.69
2022-09-06T23:26:08.302Z,87.76
2022-09-06T23:28:36.393Z,87.83
2022-09-06T23:31:05.679Z,87.71
2022-09-06T23:33:35.025Z,87.52
2022-09-06T23:36:03.831Z,87.20
2022-09-06T23:38:34.850Z,87.33
2022-09-06T23:41:03.637Z,87.63
2022-09-06T23:43:31.514Z,87.63
2022-09-06T23:45:59.948Z,87.60
2022-09-06T23:48:27.934Z,87.66
2022-09-06T23:50:55.639Z,87.74
2022-09-06T23:53:23.869Z,87.65
2022-09-06T23:55:52.865Z,87.70
2022-09-06T23:58:21.152Z,87.70
